sensor_id;sensor_type;location;lat;lon;timestamp;P1;durP1;ratioP1;P2;durP2;ratioP2
52978;SDS011;63430;53.186;6.598;2024-03-08T00:03:30;55.33;;;30.83;;
52978;SDS011;63430;53.186;6.598;2024-03-08T00:08:34;58.92;;;31.50;;
52978;SDS011;63430;53.186;6.598;2024-03-08T00:13:37;58.50;;;30.30;;
52978;SDS011;63430;53.186;6.598;2024-03-08T00:18:43;62.40;;;33.42;;
52978;SDS011;63430;53.186;6.598;2024-03-08T00:23:45;60.05;;;32.15;;
52978;SDS011;63430;53.186;6.598;2024-03-08T00:28:48;64.65;;;33.55;;
52978;SDS011;63430;53.186;6.598;2024-03-08T00:33:54;63.85;;;33.80;;
52978;SDS011;63430;53.186;6.598;2024-03-08T00:38:56;63.22;;;34.33;;
52978;SDS011;63430;53.186;6.598;2024-03-08T00:44:02;60.75;;;31.85;;
52978;SDS011;63430;53.186;6.598;2024-03-08T00:49:09;66.53;;;33.28;;
52978;SDS011;63430;53.186;6.598;2024-03-08T00:54:11;63.03;;;33.28;;
52978;SDS011;63430;53.186;6.598;2024-03-08T00:59:14;61.72;;;33.15;;
52978;SDS011;63430;53.186;6.598;2024-03-08T01:04:20;60.17;;;32.42;;
52978;SDS011;63430;53.186;6.598;2024-03-08T01:09:23;61.45;;;34.08;;
52978;SDS011;63430;53.186;6.598;2024-03-08T01:14:26;60.80;;;33.40;;
52978;SDS011;63430;53.186;6.598;2024-03-08T01:19:33;62.53;;;32.88;;
52978;SDS011;63430;53.186;6.598;2024-03-08T01:24:35;63.03;;;32.42;;
52978;SDS011;63430;53.186;6.598;2024-03-08T01:29:38;64.10;;;33.30;;
52978;SDS011;63430;53.186;6.598;2024-03-08T01:34:44;66.47;;;33.60;;
52978;SDS011;63430;53.186;6.598;2024-03-08T01:39:47;61.08;;;33.58;;
52978;SDS011;63430;53.186;6.598;2024-03-08T01:44:50;69.88;;;34.30;;
52978;SDS011;63430;53.186;6.598;2024-03-08T01:49:56;69.13;;;35.42;;
52978;SDS011;63430;53.186;6.598;2024-03-08T01:54:58;65.72;;;33.50;;
52978;SDS011;63430;53.186;6.598;2024-03-08T02:00:03;66.38;;;35.85;;
52978;SDS011;63430;53.186;6.598;2024-03-08T02:05:10;63.03;;;33.55;;
52978;SDS011;63430;53.186;6.598;2024-03-08T02:10:13;66.32;;;34.58;;
52978;SDS011;63430;53.186;6.598;2024-03-08T02:15:15;67.53;;;33.42;;
52978;SDS011;63430;53.186;6.598;2024-03-08T02:20:21;65.70;;;33.28;;
52978;SDS011;63430;53.186;6.598;2024-03-08T02:25:27;59.40;;;31.80;;
52978;SDS011;63430;53.186;6.598;2024-03-08T02:30:30;63.97;;;33.67;;
52978;SDS011;63430;53.186;6.598;2024-03-08T02:35:33;69.22;;;32.58;;
52978;SDS011;63430;53.186;6.598;2024-03-08T02:40:38;62.40;;;32.95;;
52978;SDS011;63430;53.186;6.598;2024-03-08T02:45:41;55.45;;;31.38;;
52978;SDS011;63430;53.186;6.598;2024-03-08T02:50:44;54.75;;;30.83;;
52978;SDS011;63430;53.186;6.598;2024-03-08T02:55:50;57.55;;;32.15;;
52978;SDS011;63430;53.186;6.598;2024-03-08T03:00:53;59.92;;;31.95;;
52978;SDS011;63430;53.186;6.598;2024-03-08T03:05:55;57.80;;;31.08;;
52978;SDS011;63430;53.186;6.598;2024-03-08T03:11:01;54.15;;;29.00;;
52978;SDS011;63430;53.186;6.598;2024-03-08T03:16:04;55.50;;;29.73;;
52978;SDS011;63430;53.186;6.598;2024-03-08T03:21:07;55.75;;;30.58;;
52978;SDS011;63430;53.186;6.598;2024-03-08T03:26:12;54.17;;;30.77;;
52978;SDS011;63430;53.186;6.598;2024-03-08T03:31:15;52.92;;;30.35;;
52978;SDS011;63430;53.186;6.598;2024-03-08T03:36:17;51.75;;;29.58;;
52978;SDS011;63430;53.186;6.598;2024-03-08T03:41:22;54.75;;;30.52;;
52978;SDS011;63430;53.186;6.598;2024-03-08T03:46:26;54.08;;;31.00;;
52978;SDS011;63430;53.186;6.598;2024-03-08T03:51:29;56.97;;;29.20;;
52978;SDS011;63430;53.186;6.598;2024-03-08T03:56:34;54.92;;;30.08;;
52978;SDS011;63430;53.186;6.598;2024-03-08T04:01:41;49.75;;;28.38;;
52978;SDS011;63430;53.186;6.598;2024-03-08T04:06:44;53.95;;;29.73;;
52978;SDS011;63430;53.186;6.598;2024-03-08T04:11:49;57.28;;;30.70;;
52978;SDS011;63430;53.186;6.598;2024-03-08T04:16:55;56.08;;;28.45;;
52978;SDS011;63430;53.186;6.598;2024-03-08T04:21:58;51.47;;;28.88;;
52978;SDS011;63430;53.186;6.598;2024-03-08T04:27:04;52.83;;;28.25;;
52978;SDS011;63430;53.186;6.598;2024-03-08T04:32:09;48.13;;;26.10;;
52978;SDS011;63430;53.186;6.598;2024-03-08T04:37:12;51.17;;;28.42;;
52978;SDS011;63430;53.186;6.598;2024-03-08T04:42:18;51.08;;;27.92;;
52978;SDS011;63430;53.186;6.598;2024-03-08T04:47:22;52.10;;;28.50;;
52978;SDS011;63430;53.186;6.598;2024-03-08T04:52:24;47.90;;;27.67;;
52978;SDS011;63430;53.186;6.598;2024-03-08T04:57:30;51.00;;;28.30;;
52978;SDS011;63430;53.186;6.598;2024-03-08T05:02:33;47.83;;;26.50;;
52978;SDS011;63430;53.186;6.598;2024-03-08T05:07:36;48.47;;;26.75;;
52978;SDS011;63430;53.186;6.598;2024-03-08T05:12:42;48.20;;;27.23;;
52978;SDS011;63430;53.186;6.598;2024-03-08T05:17:44;48.30;;;26.88;;
52978;SDS011;63430;53.186;6.598;2024-03-08T05:22:47;50.15;;;26.20;;
52978;SDS011;63430;53.186;6.598;2024-03-08T05:27:52;48.30;;;25.17;;
52978;SDS011;63430;53.186;6.598;2024-03-08T05:32:55;48.15;;;26.30;;
52978;SDS011;63430;53.186;6.598;2024-03-08T05:37:58;51.10;;;27.80;;
52978;SDS011;63430;53.186;6.598;2024-03-08T05:43:04;48.05;;;27.52;;
52978;SDS011;63430;53.186;6.598;2024-03-08T05:48:08;53.55;;;27.95;;
52978;SDS011;63430;53.186;6.598;2024-03-08T05:53:10;46.67;;;26.60;;
52978;SDS011;63430;53.186;6.598;2024-03-08T05:58:16;48.75;;;26.90;;
52978;SDS011;63430;53.186;6.598;2024-03-08T06:03:18;48.70;;;25.92;;
52978;SDS011;63430;53.186;6.598;2024-03-08T06:08:23;45.42;;;26.25;;
52978;SDS011;63430;53.186;6.598;2024-03-08T06:13:34;47.38;;;25.65;;
52978;SDS011;63430;53.186;6.598;2024-03-08T06:18:37;48.60;;;27.50;;
52978;SDS011;63430;53.186;6.598;2024-03-08T06:23:41;45.25;;;25.60;;
52978;SDS011;63430;53.186;6.598;2024-03-08T06:28:46;44.45;;;24.63;;
52978;SDS011;63430;53.186;6.598;2024-03-08T06:33:49;44.45;;;24.95;;
52978;SDS011;63430;53.186;6.598;2024-03-08T06:38:52;45.22;;;25.52;;
52978;SDS011;63430;53.186;6.598;2024-03-08T06:43:58;44.33;;;26.05;;
52978;SDS011;63430;53.186;6.598;2024-03-08T06:49:02;43.33;;;25.13;;
52978;SDS011;63430;53.186;6.598;2024-03-08T06:54:05;46.17;;;25.77;;
52978;SDS011;63430;53.186;6.598;2024-03-08T06:59:14;44.75;;;24.00;;
52978;SDS011;63430;53.186;6.598;2024-03-08T07:04:17;47.35;;;25.48;;
52978;SDS011;63430;53.186;6.598;2024-03-08T07:09:22;48.15;;;25.40;;
52978;SDS011;63430;53.186;6.598;2024-03-08T07:14:27;45.10;;;25.48;;
52978;SDS011;63430;53.186;6.598;2024-03-08T07:19:30;43.28;;;25.42;;
52978;SDS011;63430;53.186;6.598;2024-03-08T07:24:33;46.28;;;26.27;;
52978;SDS011;63430;53.186;6.598;2024-03-08T07:29:41;41.75;;;25.42;;
52978;SDS011;63430;53.186;6.598;2024-03-08T07:34:44;42.25;;;24.30;;
52978;SDS011;63430;53.186;6.598;2024-03-08T07:39:46;44.20;;;24.02;;
52978;SDS011;63430;53.186;6.598;2024-03-08T07:44:52;42.85;;;24.55;;
52978;SDS011;63430;53.186;6.598;2024-03-08T07:49:55;45.60;;;25.05;;
52978;SDS011;63430;53.186;6.598;2024-03-08T07:55:00;37.17;;;23.58;;
52978;SDS011;63430;53.186;6.598;2024-03-08T08:00:06;40.72;;;25.05;;
52978;SDS011;63430;53.186;6.598;2024-03-08T08:05:10;46.13;;;26.52;;
52978;SDS011;63430;53.186;6.598;2024-03-08T08:10:12;44.08;;;26.20;;
52978;SDS011;63430;53.186;6.598;2024-03-08T08:15:27;44.88;;;26.40;;
52978;SDS011;63430;53.186;6.598;2024-03-08T08:20:30;42.15;;;25.55;;
52978;SDS011;63430;53.186;6.598;2024-03-08T08:25:33;46.83;;;26.40;;
52978;SDS011;63430;53.186;6.598;2024-03-08T08:30:39;43.22;;;25.35;;
52978;SDS011;63430;53.186;6.598;2024-03-08T08:35:42;40.17;;;25.15;;
52978;SDS011;63430;53.186;6.598;2024-03-08T08:40:44;39.55;;;24.10;;
52978;SDS011;63430;53.186;6.598;2024-03-08T08:45:51;41.63;;;26.45;;
52978;SDS011;63430;53.186;6.598;2024-03-08T08:50:57;40.25;;;25.08;;
52978;SDS011;63430;53.186;6.598;2024-03-08T08:56:01;38.72;;;25.42;;
52978;SDS011;63430;53.186;6.598;2024-03-08T09:01:06;41.53;;;25.52;;
52978;SDS011;63430;53.186;6.598;2024-03-08T09:06:09;39.28;;;24.75;;
52978;SDS011;63430;53.186;6.598;2024-03-08T09:11:12;39.42;;;25.65;;
52978;SDS011;63430;53.186;6.598;2024-03-08T09:16:17;38.00;;;24.50;;
52978;SDS011;63430;53.186;6.598;2024-03-08T09:21:19;36.88;;;24.33;;
52978;SDS011;63430;53.186;6.598;2024-03-08T09:26:24;37.90;;;24.73;;
52978;SDS011;63430;53.186;6.598;2024-03-08T09:31:33;40.22;;;26.17;;
52978;SDS011;63430;53.186;6.598;2024-03-08T09:36:36;42.47;;;26.00;;
52978;SDS011;63430;53.186;6.598;2024-03-08T09:41:38;40.33;;;26.50;;
52978;SDS011;63430;53.186;6.598;2024-03-08T09:46:43;37.00;;;25.88;;
52978;SDS011;63430;53.186;6.598;2024-03-08T09:51:50;38.63;;;26.83;;
52978;SDS011;63430;53.186;6.598;2024-03-08T09:56:54;39.38;;;26.20;;
52978;SDS011;63430;53.186;6.598;2024-03-08T10:02:00;36.42;;;25.50;;
52978;SDS011;63430;53.186;6.598;2024-03-08T10:07:04;42.75;;;26.55;;
52978;SDS011;63430;53.186;6.598;2024-03-08T10:12:08;39.75;;;26.05;;
52978;SDS011;63430;53.186;6.598;2024-03-08T10:17:14;40.55;;;26.83;;
52978;SDS011;63430;53.186;6.598;2024-03-08T10:22:17;41.08;;;26.90;;
52978;SDS011;63430;53.186;6.598;2024-03-08T10:27:20;38.55;;;26.33;;
52978;SDS011;63430;53.186;6.598;2024-03-08T10:32:25;36.33;;;25.40;;
52978;SDS011;63430;53.186;6.598;2024-03-08T10:37:28;38.08;;;27.75;;
52978;SDS011;63430;53.186;6.598;2024-03-08T10:42:31;36.90;;;25.33;;
52978;SDS011;63430;53.186;6.598;2024-03-08T10:47:42;35.58;;;26.33;;
52978;SDS011;63430;53.186;6.598;2024-03-08T10:52:52;37.78;;;25.88;;
52978;SDS011;63430;53.186;6.598;2024-03-08T10:57:57;35.80;;;25.58;;
52978;SDS011;63430;53.186;6.598;2024-03-08T11:03:02;36.45;;;26.23;;
52978;SDS011;63430;53.186;6.598;2024-03-08T11:08:15;39.65;;;28.15;;
52978;SDS011;63430;53.186;6.598;2024-03-08T11:13:34;38.97;;;26.38;;
52978;SDS011;63430;53.186;6.598;2024-03-08T11:18:41;39.63;;;27.88;;
52978;SDS011;63430;53.186;6.598;2024-03-08T11:23:43;37.08;;;26.52;;
52978;SDS011;63430;53.186;6.598;2024-03-08T11:34:37;36.50;;;26.50;;
52978;SDS011;63430;53.186;6.598;2024-03-08T11:39:46;36.17;;;25.92;;
52978;SDS011;63430;53.186;6.598;2024-03-08T11:44:53;40.15;;;27.35;;
52978;SDS011;63430;53.186;6.598;2024-03-08T11:49:59;36.63;;;27.60;;
52978;SDS011;63430;53.186;6.598;2024-03-08T11:55:03;37.45;;;26.13;;
52978;SDS011;63430;53.186;6.598;2024-03-08T12:00:11;40.78;;;26.30;;
52978;SDS011;63430;53.186;6.598;2024-03-08T12:05:27;37.85;;;27.35;;
52978;SDS011;63430;53.186;6.598;2024-03-08T12:10:30;38.20;;;25.95;;
52978;SDS011;63430;53.186;6.598;2024-03-08T12:15:33;34.28;;;24.92;;
52978;SDS011;63430;53.186;6.598;2024-03-08T12:20:38;36.22;;;26.85;;
52978;SDS011;63430;53.186;6.598;2024-03-08T12:25:43;34.95;;;25.88;;
52978;SDS011;63430;53.186;6.598;2024-03-08T12:30:46;36.20;;;24.92;;
52978;SDS011;63430;53.186;6.598;2024-03-08T12:35:53;34.17;;;25.48;;
52978;SDS011;63430;53.186;6.598;2024-03-08T12:40:58;34.75;;;24.45;;
52978;SDS011;63430;53.186;6.598;2024-03-08T12:46:01;36.55;;;25.83;;
52978;SDS011;63430;53.186;6.598;2024-03-08T12:51:08;35.65;;;24.92;;
52978;SDS011;63430;53.186;6.598;2024-03-08T12:56:11;30.42;;;23.85;;
52978;SDS011;63430;53.186;6.598;2024-03-08T13:01:14;37.00;;;25.83;;
52978;SDS011;63430;53.186;6.598;2024-03-08T13:06:20;31.30;;;24.08;;
52978;SDS011;63430;53.186;6.598;2024-03-08T13:11:26;32.88;;;24.17;;
52978;SDS011;63430;53.186;6.598;2024-03-08T13:16:32;31.98;;;23.80;;
52978;SDS011;63430;53.186;6.598;2024-03-08T13:21:39;31.30;;;23.83;;
52978;SDS011;63430;53.186;6.598;2024-03-08T13:26:42;29.88;;;22.40;;
52978;SDS011;63430;53.186;6.598;2024-03-08T13:31:46;30.58;;;23.38;;
52978;SDS011;63430;53.186;6.598;2024-03-08T13:36:56;28.03;;;21.53;;
52978;SDS011;63430;53.186;6.598;2024-03-08T13:42:03;28.40;;;22.00;;
52978;SDS011;63430;53.186;6.598;2024-03-08T13:47:11;28.38;;;21.77;;
52978;SDS011;63430;53.186;6.598;2024-03-08T13:52:18;26.58;;;20.98;;
52978;SDS011;63430;53.186;6.598;2024-03-08T13:57:21;27.73;;;21.60;;
52978;SDS011;63430;53.186;6.598;2024-03-08T14:02:24;26.38;;;20.92;;
52978;SDS011;63430;53.186;6.598;2024-03-08T14:07:32;24.77;;;19.90;;
52978;SDS011;63430;53.186;6.598;2024-03-08T14:12:38;26.98;;;20.02;;
52978;SDS011;63430;53.186;6.598;2024-03-08T14:17:41;24.77;;;20.35;;
52978;SDS011;63430;53.186;6.598;2024-03-08T14:22:46;25.60;;;20.23;;
52978;SDS011;63430;53.186;6.598;2024-03-08T14:27:49;27.45;;;21.05;;
52978;SDS011;63430;53.186;6.598;2024-03-08T14:32:55;26.35;;;20.27;;
52978;SDS011;63430;53.186;6.598;2024-03-08T14:38:01;27.27;;;20.17;;
52978;SDS011;63430;53.186;6.598;2024-03-08T14:43:04;25.80;;;19.75;;
52978;SDS011;63430;53.186;6.598;2024-03-08T14:48:07;27.25;;;20.00;;
52978;SDS011;63430;53.186;6.598;2024-03-08T14:53:12;27.90;;;20.90;;
52978;SDS011;63430;53.186;6.598;2024-03-08T14:58:19;26.85;;;20.52;;
52978;SDS011;63430;53.186;6.598;2024-03-08T15:03:23;27.50;;;20.40;;
52978;SDS011;63430;53.186;6.598;2024-03-08T15:08:31;30.55;;;21.90;;
52978;SDS011;63430;53.186;6.598;2024-03-08T15:13:34;29.23;;;21.60;;
52978;SDS011;63430;53.186;6.598;2024-03-08T15:18:44;28.95;;;21.83;;
52978;SDS011;63430;53.186;6.598;2024-03-08T15:23:56;28.10;;;21.40;;
52978;SDS011;63430;53.186;6.598;2024-03-08T15:29:04;28.83;;;22.13;;
52978;SDS011;63430;53.186;6.598;2024-03-08T15:34:07;28.85;;;20.95;;
52978;SDS011;63430;53.186;6.598;2024-03-08T15:39:13;30.23;;;21.98;;
52978;SDS011;63430;53.186;6.598;2024-03-08T15:44:16;31.88;;;22.25;;
52978;SDS011;63430;53.186;6.598;2024-03-08T15:49:18;26.88;;;21.90;;
52978;SDS011;63430;53.186;6.598;2024-03-08T15:54:24;27.75;;;22.20;;
52978;SDS011;63430;53.186;6.598;2024-03-08T15:59:29;28.73;;;21.60;;
52978;SDS011;63430;53.186;6.598;2024-03-08T16:04:35;29.17;;;22.15;;
52978;SDS011;63430;53.186;6.598;2024-03-08T16:09:42;29.33;;;21.65;;
52978;SDS011;63430;53.186;6.598;2024-03-08T16:14:44;28.05;;;21.42;;
52978;SDS011;63430;53.186;6.598;2024-03-08T16:19:47;28.65;;;21.58;;
52978;SDS011;63430;53.186;6.598;2024-03-08T16:24:54;28.38;;;21.08;;
52978;SDS011;63430;53.186;6.598;2024-03-08T16:29:57;27.55;;;21.30;;
52978;SDS011;63430;53.186;6.598;2024-03-08T16:35:00;27.45;;;19.80;;
52978;SDS011;63430;53.186;6.598;2024-03-08T16:40:06;29.80;;;21.40;;
52978;SDS011;63430;53.186;6.598;2024-03-08T16:45:17;28.40;;;21.50;;
52978;SDS011;63430;53.186;6.598;2024-03-08T16:50:20;28.40;;;21.80;;
52978;SDS011;63430;53.186;6.598;2024-03-08T16:55:27;28.08;;;20.80;;
52978;SDS011;63430;53.186;6.598;2024-03-08T17:00:32;28.73;;;20.63;;
52978;SDS011;63430;53.186;6.598;2024-03-08T17:05:35;28.83;;;20.88;;
52978;SDS011;63430;53.186;6.598;2024-03-08T17:10:42;31.52;;;21.55;;
52978;SDS011;63430;53.186;6.598;2024-03-08T17:15:45;28.98;;;21.88;;
52978;SDS011;63430;53.186;6.598;2024-03-08T17:20:51;28.55;;;20.55;;
52978;SDS011;63430;53.186;6.598;2024-03-08T17:25:56;30.20;;;21.75;;
52978;SDS011;63430;53.186;6.598;2024-03-08T17:30:59;32.17;;;22.75;;
52978;SDS011;63430;53.186;6.598;2024-03-08T17:36:02;32.85;;;22.02;;
52978;SDS011;63430;53.186;6.598;2024-03-08T17:41:11;29.95;;;21.67;;
52978;SDS011;63430;53.186;6.598;2024-03-08T17:46:14;31.83;;;22.38;;
52978;SDS011;63430;53.186;6.598;2024-03-08T17:51:19;30.85;;;23.13;;
52978;SDS011;63430;53.186;6.598;2024-03-08T17:56:24;30.27;;;22.92;;
52978;SDS011;63430;53.186;6.598;2024-03-08T18:01:28;33.92;;;22.52;;
52978;SDS011;63430;53.186;6.598;2024-03-08T18:06:34;33.53;;;22.65;;
52978;SDS011;63430;53.186;6.598;2024-03-08T18:11:45;31.92;;;23.02;;
52978;SDS011;63430;53.186;6.598;2024-03-08T18:16:48;33.78;;;23.27;;
52978;SDS011;63430;53.186;6.598;2024-03-08T18:21:51;34.95;;;25.15;;
52978;SDS011;63430;53.186;6.598;2024-03-08T18:26:57;32.60;;;23.80;;
52978;SDS011;63430;53.186;6.598;2024-03-08T18:31:59;33.28;;;24.00;;
52978;SDS011;63430;53.186;6.598;2024-03-08T18:37:03;35.90;;;24.65;;
52978;SDS011;63430;53.186;6.598;2024-03-08T18:42:09;35.13;;;23.67;;
52978;SDS011;63430;53.186;6.598;2024-03-08T18:47:13;35.08;;;24.13;;
52978;SDS011;63430;53.186;6.598;2024-03-08T18:52:16;38.50;;;24.27;;
52978;SDS011;63430;53.186;6.598;2024-03-08T18:57:23;33.25;;;23.27;;
52978;SDS011;63430;53.186;6.598;2024-03-08T19:02:29;36.15;;;24.60;;
52978;SDS011;63430;53.186;6.598;2024-03-08T19:07:34;35.53;;;25.00;;
52978;SDS011;63430;53.186;6.598;2024-03-08T19:12:41;36.22;;;24.30;;
52978;SDS011;63430;53.186;6.598;2024-03-08T19:17:45;36.58;;;25.20;;
52978;SDS011;63430;53.186;6.598;2024-03-08T19:22:52;36.50;;;25.55;;
52978;SDS011;63430;53.186;6.598;2024-03-08T19:27:59;38.53;;;26.15;;
52978;SDS011;63430;53.186;6.598;2024-03-08T19:33:03;40.40;;;26.33;;
52978;SDS011;63430;53.186;6.598;2024-03-08T19:38:15;38.80;;;26.30;;
52978;SDS011;63430;53.186;6.598;2024-03-08T19:43:21;43.92;;;27.42;;
52978;SDS011;63430;53.186;6.598;2024-03-08T19:48:29;40.38;;;27.52;;
52978;SDS011;63430;53.186;6.598;2024-03-08T19:53:32;41.67;;;27.77;;
52978;SDS011;63430;53.186;6.598;2024-03-08T19:58:37;38.20;;;25.98;;
52978;SDS011;63430;53.186;6.598;2024-03-08T20:03:41;36.60;;;25.35;;
52978;SDS011;63430;53.186;6.598;2024-03-08T20:08:44;36.97;;;24.15;;
52978;SDS011;63430;53.186;6.598;2024-03-08T20:13:49;35.88;;;24.10;;
52978;SDS011;63430;53.186;6.598;2024-03-08T20:18:52;37.05;;;24.50;;
52978;SDS011;63430;53.186;6.598;2024-03-08T20:23:55;34.97;;;23.50;;
52978;SDS011;63430;53.186;6.598;2024-03-08T20:29:00;35.90;;;24.13;;
52978;SDS011;63430;53.186;6.598;2024-03-08T20:34:03;33.78;;;22.60;;
52978;SDS011;63430;53.186;6.598;2024-03-08T20:39:05;36.83;;;22.00;;
52978;SDS011;63430;53.186;6.598;2024-03-08T20:44:12;30.65;;;21.13;;
52978;SDS011;63430;53.186;6.598;2024-03-08T20:49:17;29.40;;;20.47;;
52978;SDS011;63430;53.186;6.598;2024-03-08T20:54:22;31.85;;;20.58;;
52978;SDS011;63430;53.186;6.598;2024-03-08T20:59:27;33.25;;;20.83;;
52978;SDS011;63430;53.186;6.598;2024-03-08T21:04:31;31.40;;;21.60;;
52978;SDS011;63430;53.186;6.598;2024-03-08T21:09:37;34.35;;;20.10;;
52978;SDS011;63430;53.186;6.598;2024-03-08T21:14:42;29.67;;;21.48;;
52978;SDS011;63430;53.186;6.598;2024-03-08T21:19:45;32.75;;;21.38;;
52978;SDS011;63430;53.186;6.598;2024-03-08T21:24:47;34.08;;;21.23;;
52978;SDS011;63430;53.186;6.598;2024-03-08T21:29:53;33.47;;;22.08;;
52978;SDS011;63430;53.186;6.598;2024-03-08T21:34:58;31.33;;;20.85;;
52978;SDS011;63430;53.186;6.598;2024-03-08T21:40:01;33.10;;;21.27;;
52978;SDS011;63430;53.186;6.598;2024-03-08T21:45:10;31.95;;;21.00;;
52978;SDS011;63430;53.186;6.598;2024-03-08T21:50:13;30.55;;;20.55;;
52978;SDS011;63430;53.186;6.598;2024-03-08T21:55:16;32.88;;;21.38;;
52978;SDS011;63430;53.186;6.598;2024-03-08T22:00:23;33.17;;;21.10;;
52978;SDS011;63430;53.186;6.598;2024-03-08T22:05:26;31.92;;;20.40;;
52978;SDS011;63430;53.186;6.598;2024-03-08T22:10:29;34.20;;;21.98;;
52978;SDS011;63430;53.186;6.598;2024-03-08T22:15:35;33.85;;;22.08;;
52978;SDS011;63430;53.186;6.598;2024-03-08T22:20:37;31.30;;;21.35;;
52978;SDS011;63430;53.186;6.598;2024-03-08T22:25:40;31.63;;;20.67;;
52978;SDS011;63430;53.186;6.598;2024-03-08T22:30:47;32.85;;;20.75;;
52978;SDS011;63430;53.186;6.598;2024-03-08T22:35:50;32.47;;;20.40;;
52978;SDS011;63430;53.186;6.598;2024-03-08T22:40:52;32.80;;;21.05;;
52978;SDS011;63430;53.186;6.598;2024-03-08T22:45:58;31.75;;;21.20;;
52978;SDS011;63430;53.186;6.598;2024-03-08T22:51:00;31.77;;;21.10;;
52978;SDS011;63430;53.186;6.598;2024-03-08T22:56:05;31.90;;;20.65;;
52978;SDS011;63430;53.186;6.598;2024-03-08T23:01:11;32.97;;;21.30;;
52978;SDS011;63430;53.186;6.598;2024-03-08T23:06:20;31.55;;;20.38;;
52978;SDS011;63430;53.186;6.598;2024-03-08T23:11:24;35.45;;;20.20;;
52978;SDS011;63430;53.186;6.598;2024-03-08T23:16:30;32.95;;;21.42;;
52978;SDS011;63430;53.186;6.598;2024-03-08T23:21:33;33.78;;;20.95;;
52978;SDS011;63430;53.186;6.598;2024-03-08T23:26:36;30.63;;;20.00;;
52978;SDS011;63430;53.186;6.598;2024-03-08T23:31:41;32.42;;;19.60;;
52978;SDS011;63430;53.186;6.598;2024-03-08T23:36:47;31.30;;;19.83;;
52978;SDS011;63430;53.186;6.598;2024-03-08T23:41:50;31.60;;;20.88;;
52978;SDS011;63430;53.186;6.598;2024-03-08T23:46:55;32.85;;;19.98;;
52978;SDS011;63430;53.186;6.598;2024-03-08T23:51:58;32.53;;;20.17;;
52978;SDS011;63430;53.186;6.598;2024-03-08T23:57:03;31.23;;;20.98;;
